Latest Coastal Weather Observations for McCluer Island

IDD60701

Issued at 5:51 am CST Tuesday 7 July 2015 (issued every 10 minutes, with the page automatically refreshed every 10 minutes)

About coastal observations | Map of coastal stations | Coastal observations for NT | Marine services | Other Formats
Station Details ID: 014274 Name: MCCLUER ISLAND Lat: -11.05 Lon: 132.98 Height: 1.4 m
Data from the previous 72 hours. | See also: Recent months at McCluer Island
Date/Time
CST
Temp

°C
Wind Pressure Rain
since 9am
mm
Weather Cloud Vis
km
Sea
Height
m
Swell
Dir
 
Speed
knots
Gust
knots
hPa Trend Height
m
Period
s
Dir
07/05:30am 25.1 E 22 25 1011.7 - 0.0 - - - - - - -
07/05:00am 25.3 E 24 27 1011.4 - 0.0 - - - - - - -
07/04:30am 25.1 E 24 28 1011.2 - 0.0 - - - - - - -
07/04:00am 25.2 E 25 29 1011.0 - 0.0 - - - - - - -
07/03:30am 25.2 E 24 27 1010.7 - 0.0 - - - - - - -
07/03:00am 25.3 E 24 29 1010.8 - 0.0 - - - - - - -
07/02:30am 25.4 E 23 27 1011.0 - 0.0 - - - - - - -
07/02:00am 25.6 E 23 27 1011.1 - 0.0 - - - - - - -
07/01:30am 25.7 E 22 27 1011.3 - 0.0 - - - - - - -
07/01:00am 25.9 E 21 25 1011.7 - 0.0 - - - - - - -
07/12:30am 25.9 E 21 25 1011.8 - 0.0 - - - - - - -
07/12:00am 25.9 E 19 24 1012.0 - 0.0 - - - - - - -
 
Date/Time
CST
Temp

°C
Wind Pressure Rain
since 9am
mm
Weather Cloud Vis
km
Sea
Height
m
Swell
Dir
 
Speed
knots
Gust
knots
hPa Trend Height
m
Period
s
Dir
06/11:30pm 25.9 E 20 23 1012.0 - 0.0 - - - - - - -
06/11:00pm 26.0 E 20 23 1012.0 - 0.0 - - - - - - -
06/10:30pm 26.1 E 19 23 1012.1 - 0.0 - - - - - - -
06/10:00pm 26.1 E 19 22 1012.2 - 0.0 - - - - - - -
06/09:30pm 26.1 E 16 18 1012.3 - 0.0 - - - - - - -
06/09:00pm 26.0 E 16 19 1012.2 - 0.0 - - - - - - -
06/08:30pm 25.9 E 16 19 1012.2 - 0.0 - - - - - - -
06/08:00pm 25.8 E 16 19 1012.1 - 0.0 - - - - - - -
06/07:30pm 25.9 E 17 20 1011.7 - 0.0 - - - - - - -
06/07:00pm 25.9 E 17 20 1011.5 - 0.0 - - - - - - -
06/06:30pm 25.9 E 17 20 1011.3 - 0.0 - - - - - - -
06/06:00pm 26.1 E 17 19 1011.0 - 0.0 - - - - - - -
06/05:30pm 26.0 E 17 20 1010.8 - 0.0 - - - - - - -
06/05:00pm 26.1 E 17 19 1010.6 - 0.0 - - - - - - -
06/04:30pm 26.2 ESE 18 21 1010.5 - 0.0 - - - - - - -
06/04:00pm 26.3 ESE 17 21 1010.6 - 0.0 - - - - - - -
06/03:30pm 26.7 E 17 20 1010.7 - 0.0 - - - - - - -
06/03:00pm 26.7 E 17 20 1010.9 - 0.0 - - - - - - -
06/02:30pm 26.5 E 17 20 1011.0 - 0.0 - - - - - - -
06/02:00pm 26.2 E 17 19 1011.4 - 0.0 - - - - - - -
06/01:30pm 26.5 E 17 19 1011.8 - 0.0 - - - - - - -
06/01:00pm 26.3 ESE 18 21 1012.3 - 0.0 - - - - - - -
06/12:30pm 26.0 ESE 19 22 1012.7 - 0.0 - - - - - - -
06/12:00pm 26.4 ESE 20 24 1013.0 - 0.0 - - - - - - -
06/11:30am 26.7 ESE 18 21 1013.1 - 0.0 - - - - - - -
06/11:00am 26.0 ESE 18 21 1013.4 - 0.0 - - - - - - -
06/10:30am 26.1 ESE 17 20 1013.7 - 0.0 - - - - - - -
06/10:00am 25.6 ESE 16 19 1013.8 - 0.0 - - - - - - -
06/09:30am 25.4 ESE 16 20 1013.8 - 0.0 - - - - - - -
06/09:00am 25.1 ESE 16 19 1013.5 - 0.0 - - - - - - -
06/08:30am 25.0 ESE 16 19 1013.4 - 0.0 - - - - - - -
06/08:00am 25.0 ESE 18 20 1013.2 - 0.0 - - - - - - -
06/07:30am 24.4 ESE 15 19 1013.0 - 0.0 - - - - - - -
06/07:00am 24.7 ESE 17 20 1012.6 - 0.0 - - - - - - -
06/06:30am 24.7 ESE 16 19 1012.5 - 0.0 - - - - - - -
06/06:00am 25.0 E 17 20 1012.5 - 0.0 - - - - - - -
06/05:30am 24.5 ESE 16 19 1012.3 - 0.0 - - - - - - -
06/05:00am 24.7 ESE 17 20 1012.2 - 0.0 - - - - - - -
06/04:30am 24.7 ESE 16 18 1012.2 - 0.0 - - - - - - -
06/04:00am 24.6 ESE 16 19 1012.1 - 0.0 - - - - - - -
06/03:30am 24.7 ESE 16 18 1012.0 - 0.0 - - - - - - -
06/03:00am 24.9 ESE 16 19 1012.2 - 0.0 - - - - - - -
06/02:30am 25.1 E 17 20 1012.3 - 0.0 - - - - - - -
06/02:00am 25.1 E 17 19 1012.3 - 0.0 - - - - - - -
06/01:30am 25.3 E 18 21 1012.3 - 0.0 - - - - - - -
06/01:00am 25.3 E 19 22 1012.4 - 0.0 - - - - - - -
06/12:30am 25.6 E 19 22 1012.5 - 0.0 - - - - - - -
06/12:00am 25.7 E 18 21 1012.7 - 0.0 - - - - - - -
 
Date/Time
CST
Temp

°C
Wind Pressure Rain
since 9am
mm
Weather Cloud Vis
km
Sea
Height
m
Swell
Dir
 
Speed
knots
Gust
knots
hPa Trend Height
m
Period
s
Dir
05/11:30pm 25.8 E 19 22 1012.8 - 0.0 - - - - - - -
05/11:00pm 25.8 E 19 22 1012.9 - 0.0 - - - - - - -
05/10:30pm 26.0 E 19 21 1013.0 - 0.0 - - - - - - -
05/10:00pm 25.9 E 18 20 1013.2 - 0.0 - - - - - - -
05/09:30pm 26.0 E 17 19 1013.2 - 0.0 - - - - - - -
05/09:00pm 25.9 E 16 19 1013.1 - 0.0 - - - - - - -
05/08:30pm 26.2 E 16 18 1012.9 - 0.0 - - - - - - -
05/08:00pm 26.3 E 15 18 1012.6 - 0.0 - - - - - - -
05/07:30pm 26.1 E 15 17 1012.4 - 0.0 - - - - - - -
05/07:00pm 26.0 E 15 18 1012.2 - 0.0 - - - - - - -
05/06:30pm 25.9 E 15 18 1011.9 - 0.0 - - - - - - -
05/06:00pm 26.0 E 15 18 1011.7 - 0.0 - - - - - - -
05/05:30pm 26.3 E 18 21 1011.6 - 0.0 - - - - - - -
05/05:00pm 26.4 ESE 17 20 1011.3 - 0.0 - - - - - - -
05/04:30pm 26.5 E 18 20 1011.3 - 0.0 - - - - - - -
05/04:00pm 26.7 ESE 17 20 1011.4 - 0.0 - - - - - - -
05/03:30pm 26.7 ESE 17 21 1011.5 - 0.0 - - - - - - -
05/03:00pm 26.9 ESE 17 19 1011.7 - 0.0 - - - - - - -
05/02:30pm 26.6 ESE 16 18 1012.1 - 0.0 - - - - - - -
05/02:00pm 26.2 ESE 17 20 1012.4 - 0.0 - - - - - - -
05/01:30pm 26.0 ESE 18 21 1012.6 - 0.0 - - - - - - -
05/01:00pm 26.0 ESE 16 19 1012.9 - 0.0 - - - - - - -
05/12:30pm 25.9 ESE 16 19 1013.3 - 0.0 - - - - - - -
05/12:00pm 25.7 ESE 15 19 1013.6 - 0.0 - - - - - - -
05/11:30am 26.1 ESE 15 19 1013.9 - 0.0 - - - - - - -
05/11:00am 25.7 ESE 14 18 1014.2 - 0.0 - - - - - - -
05/10:30am 25.4 ESE 14 17 1014.4 - 0.0 - - - - - - -
05/10:00am 25.5 ESE 14 17 1014.4 - 0.0 - - - - - - -
05/09:30am 25.5 ESE 14 17 1014.3 - 0.0 - - - - - - -
05/09:00am 24.9 ESE 15 20 1014.2 - 0.0 - - - - - - -
05/08:30am 24.2 ESE 13 16 1014.2 - 0.0 - - - - - - -
05/08:00am 23.8 ESE 16 21 1013.8 - 0.0 - - - - - - -
05/07:30am 23.7 ESE 15 19 1013.5 - 0.0 - - - - - - -
05/07:00am 23.4 SE 14 19 1012.8 - 0.0 - - - - - - -
05/06:30am 23.7 SE 12 16 1013.0 - 0.0 - - - - - - -
05/06:00am 23.9 SE 12 16 1013.0 - 0.0 - - - - - - -
05/05:30am 24.3 SE 13 17 1012.8 - 0.0 - - - - - - -
05/05:00am 24.2 SE 12 16 1012.6 - 0.0 - - - - - - -
05/04:30am 24.0 ESE 16 21 1012.4 - 0.0 - - - - - - -
05/04:00am 24.2 ESE 16 19 1012.3 - 0.0 - - - - - - -
05/03:30am 24.3 ESE 18 22 1012.2 - 0.0 - - - - - - -
05/03:00am 24.2 ESE 15 18 1012.4 - 0.0 - - - - - - -
05/02:30am 24.6 E 16 19 1012.7 - 0.0 - - - - - - -
05/02:00am 24.8 E 15 18 1013.1 - 0.0 - - - - - - -
05/01:30am 24.8 E 14 17 1013.1 - 0.0 - - - - - - -
05/01:00am 25.0 E 13 15 1013.2 - 0.0 - - - - - - -
05/12:30am 25.1 E 13 14 1013.2 - 0.0 - - - - - - -
05/12:00am 25.2 E 12 15 1013.2 - 0.0 - - - - - - -
 
Date/Time
CST
Temp

°C
Wind Pressure Rain
since 9am
mm
Weather Cloud Vis
km
Sea
Height
m
Swell
Dir
 
Speed
knots
Gust
knots
hPa Trend Height
m
Period
s
Dir
04/11:30pm 25.4 E 12 13 1013.1 - 0.0 - - - - - - -
04/11:00pm 25.6 ENE 11 14 1013.1 - 0.0 - - - - - - -
04/10:30pm 25.6 E 11 14 1013.2 - 0.0 - - - - - - -
04/10:00pm 25.5 E 12 13 1013.3 - 0.0 - - - - - - -
04/09:30pm 25.5 E 12 14 1013.1 - 0.0 - - - - - - -
04/09:00pm 25.6 E 14 16 1013.0 - 0.0 - - - - - - -
04/08:30pm 25.6 E 13 17 1012.7 - 0.0 - - - - - - -
04/08:00pm 25.5 E 15 17 1012.3 - 0.0 - - - - - - -
04/07:30pm 25.3 E 15 17 1012.1 - 0.0 - - - - - - -
04/07:00pm 25.3 E 14 17 1011.9 - 0.0 - - - - - - -
04/06:30pm 25.4 E 15 17 1011.7 - 0.0 - - - - - - -
04/06:00pm 25.5 ESE 14 16 1011.6 - 0.0 - - - - - - -
04/05:30pm 25.8 E 15 17 1011.3 - 0.0 - - - - - - -
04/05:00pm 26.2 ESE 16 18 1011.1 - 0.0 - - - - - - -
04/04:30pm 26.3 ESE 15 17 1011.0 - 0.0 - - - - - - -
04/04:00pm 26.8 ESE 15 18 1010.8 - 0.0 - - - - - - -
04/03:30pm 27.1 ESE 16 19 1010.9 - 0.0 - - - - - - -
04/03:00pm 27.2 ESE 15 20 1011.0 - 0.0 - - - - - - -
04/02:30pm 27.1 ESE 17 20 1011.4 - 0.0 - - - - - - -
04/02:00pm 26.2 ESE 19 23 1011.7 - 0.0 - - - - - - -
04/01:30pm 26.3 ESE 21 23 1012.3 - 0.0 - - - - - - -
04/01:00pm 26.0 ESE 22 26 1012.9 - 0.0 - - - - - - -
04/12:30pm 25.8 ESE 22 26 1013.3 - 0.0 - - - - - - -
04/12:00pm 25.6 ESE 21 25 1013.6 - 0.0 - - - - - - -
04/11:30am 25.5 ESE 20 23 1014.0 - 0.0 - - - - - - -
04/11:00am 26.1 ESE 18 24 1014.5 - 0.0 - - - - - - -
04/10:30am 26.3 ESE 19 24 1014.7 - 0.0 - - - - - - -
04/10:00am 25.5 ESE 20 24 1014.9 - 0.0 - - - - - - -
04/09:30am 25.6 ESE 16 22 1014.8 - 0.0 - - - - - - -
04/09:00am 25.3 ESE 16 22 1014.9 - 0.0 - - - - - - -
04/08:30am 24.8 ESE 16 19 1014.7 - 0.0 - - - - - - -
04/08:00am 24.5 ESE 16 20 1014.4 - 0.0 - - - - - - -
04/07:30am 24.2 ESE 14 19 1014.2 - 0.0 - - - - - - -
04/07:00am 24.1 ESE 17 21 1013.9 - 0.0 - - - - - - -
04/06:30am 24.0 ESE 15 20 1013.8 - 0.0 - - - - - - -
04/06:00am 24.2 ESE 19 23 1013.6 - 0.0 - - - - - - -

Other Formats:

Comma delimited format used in spreadsheet applications
http://www.bom.gov.au/fwo/IDD60701/IDD60701.94135.axf

JavaScript Object Notation format (JSON) in row-major order
http://www.bom.gov.au/fwo/IDD60701/IDD60701.94135.json